Time;durP1;ratioP1;P1;durP2;ratioP2;P2;SDS_P1;SDS_P2;PMS_P1;PMS_P2;Temp;Humidity;BMP_temperature;BMP_pressure;BME280_temperature;BME280_humidity;BME280_pressure;Samples;Min_cycle;Max_cycle;Signal;HPM_P1;HPM_P2
2023/03/28 00:00:20;;;;;;;8.43;4.00;;;;;;;;;;4995848;28;20041;-59
2023/03/28 00:02:46;;;;;;;10.27;3.65;;;;;;;;;;5003207;28;20700;-58
2023/03/28 00:05:13;;;;;;;8.13;3.45;;;;;;;;;;4995443;28;20046;-56
2023/03/28 00:07:39;;;;;;;8.45;3.28;;;;;;;;;;4996260;28;20155;-57
2023/03/28 00:10:07;;;;;;;7.68;3.45;;;;;;;;;;4997043;28;20052;-60
2023/03/28 00:12:34;;;;;;;9.02;4.03;;;;;;;;;;4994894;28;20038;-60
2023/03/28 00:15:00;;;;;;;11.40;4.95;;;;;;;;;;4995171;28;20054;-59
2023/03/28 00:17:27;;;;;;;9.88;3.70;;;;;;;;;;4994165;28;20062;-57
2023/03/28 00:19:53;;;;;;;6.32;3.00;;;;;;;;;;4996726;28;20062;-60
2023/03/28 00:22:21;;;;;;;8.85;4.15;;;;;;;;;;4995421;28;20402;-61
2023/03/28 00:24:48;;;;;;;10.70;4.28;;;;;;;;;;4995873;28;20371;-59
2023/03/28 00:27:15;;;;;;;7.78;3.70;;;;;;;;;;4995312;28;20589;-59
2023/03/28 00:29:41;;;;;;;9.65;4.20;;;;;;;;;;4994935;28;20049;-62
2023/03/28 00:32:08;;;;;;;8.73;3.70;;;;;;;;;;4995831;28;20057;-58
2023/03/28 00:34:35;;;;;;;7.63;3.65;;;;;;;;;;4995391;28;20093;-60
2023/03/28 00:37:01;;;;;;;11.05;4.10;;;;;;;;;;4995134;28;20878;-59
2023/03/28 00:39:30;;;;;;;9.23;4.03;;;;;;;;;;4995121;28;20054;-58
2023/03/28 00:42:00;;;;;;;14.32;3.83;;;;;;;;;;4995729;28;20128;-57
2023/03/28 00:44:42;;;;;;;8.27;3.70;;;;;;;;;;4994850;28;20197;-58
2023/03/28 00:47:16;;;;;;;10.88;3.50;;;;;;;;;;4995429;28;20049;-57
2023/03/28 00:49:45;;;;;;;8.88;3.75;;;;;;;;;;4993515;28;20037;-58
2023/03/28 00:52:14;;;;;;;6.30;3.13;;;;;;;;;;4994678;28;20061;-59
2023/03/28 00:54:41;;;;;;;7.93;3.00;;;;;;;;;;4994477;28;20057;-56
2023/03/28 00:57:09;;;;;;;7.20;3.47;;;;;;;;;;4991424;28;20099;-58
2023/03/28 00:59:36;;;;;;;7.43;3.33;;;;;;;;;;4994244;28;20042;-58
2023/03/28 01:02:03;;;;;;;7.50;3.20;;;;;;;;;;4994764;28;20046;-58
2023/03/28 01:04:35;;;;;;;10.88;3.53;;;;;;;;;;4994181;28;20186;-60
2023/03/28 01:07:02;;;;;;;7.78;3.58;;;;;;;;;;4994540;28;20034;-61
2023/03/28 01:09:29;;;;;;;8.45;3.72;;;;;;;;;;4994697;28;20038;-60
2023/03/28 01:11:57;;;;;;;8.30;3.65;;;;;;;;;;4994598;28;20049;-60
2023/03/28 01:14:26;;;;;;;11.90;3.40;;;;;;;;;;4994567;28;20063;-58
2023/03/28 01:16:55;;;;;;;6.18;3.20;;;;;;;;;;4994622;28;20033;-58
2023/03/28 01:19:25;;;;;;;7.03;3.30;;;;;;;;;;4995635;28;20522;-59
2023/03/28 01:21:59;;;;;;;8.35;3.97;;;;;;;;;;4996054;28;20050;-60
2023/03/28 01:24:45;;;;;;;7.82;3.17;;;;;;;;;;5003293;28;20079;-61
2023/03/28 01:27:14;;;;;;;9.10;3.40;;;;;;;;;;4994373;28;20080;-61
2023/03/28 01:29:44;;;;;;;16.13;3.47;;;;;;;;;;4994138;28;20049;-58
2023/03/28 01:32:11;;;;;;;8.55;3.50;;;;;;;;;;4995110;28;20151;-64
2023/03/28 01:34:56;;;;;;;14.93;3.90;;;;;;;;;;4994953;28;20159;-60
2023/03/28 01:37:33;;;;;;;9.85;4.30;;;;;;;;;;4994667;28;20155;-62
2023/03/28 01:40:18;;;;;;;9.75;4.47;;;;;;;;;;4995224;28;20046;-61
2023/03/28 01:43:03;;;;;;;10.13;4.63;;;;;;;;;;5001257;28;20042;-63
2023/03/28 01:45:41;;;;;;;11.88;4.07;;;;;;;;;;4994046;28;20045;-59
2023/03/28 01:48:11;;;;;;;9.20;3.70;;;;;;;;;;4996648;28;21010;-61
2023/03/28 01:50:49;;;;;;;11.68;3.90;;;;;;;;;;4995975;28;20046;-62
2023/03/28 01:53:19;;;;;;;9.18;3.75;;;;;;;;;;4994504;28;20048;-59
2023/03/28 01:56:00;;;;;;;8.10;3.30;;;;;;;;;;5002198;28;20116;-62
2023/03/28 01:58:34;;;;;;;8.13;3.47;;;;;;;;;;4995056;28;20045;-60
2023/03/28 02:01:14;;;;;;;10.38;4.05;;;;;;;;;;4995838;28;20514;-60
2023/03/28 02:03:43;;;;;;;9.88;4.00;;;;;;;;;;4995128;28;20042;-60
2023/03/28 02:06:10;;;;;;;7.75;3.50;;;;;;;;;;4994760;28;20042;-60
2023/03/28 02:08:39;;;;;;;11.60;4.03;;;;;;;;;;4994960;28;20064;-60
2023/03/28 02:11:26;;;;;;;7.80;3.45;;;;;;;;;;4988441;28;20038;-59
2023/03/28 02:13:57;;;;;;;10.15;3.90;;;;;;;;;;4982985;28;20057;-62
2023/03/28 02:16:25;;;;;;;6.25;3.17;;;;;;;;;;4991066;28;20042;-59
2023/03/28 02:18:55;;;;;;;11.48;3.78;;;;;;;;;;4995857;28;20053;-59
2023/03/28 02:21:27;;;;;;;10.63;4.05;;;;;;;;;;4994779;28;20090;-60
2023/03/28 02:23:55;;;;;;;8.50;4.20;;;;;;;;;;4994653;28;20980;-60
2023/03/28 02:26:22;;;;;;;26.13;5.07;;;;;;;;;;4993503;28;20038;-64
2023/03/28 02:28:51;;;;;;;11.10;4.25;;;;;;;;;;4989123;28;20973;-59
2023/03/28 02:31:18;;;;;;;7.45;3.65;;;;;;;;;;4994712;28;20034;-64
2023/03/28 02:33:46;;;;;;;10.00;4.22;;;;;;;;;;4993919;28;20042;-59
2023/03/28 02:36:31;;;;;;;8.93;3.53;;;;;;;;;;4993303;28;20160;-58
2023/03/28 02:39:07;;;;;;;13.05;4.63;;;;;;;;;;4993585;28;20108;-60
2023/03/28 02:41:34;;;;;;;18.08;4.93;;;;;;;;;;4993046;28;20637;-58
2023/03/28 02:44:19;;;;;;;9.57;5.10;;;;;;;;;;4993359;28;20769;-59
2023/03/28 02:46:51;;;;;;;10.30;5.00;;;;;;;;;;4992306;28;20399;-59
2023/03/28 02:49:20;;;;;;;11.27;4.47;;;;;;;;;;5000602;28;20077;-59
2023/03/28 02:51:57;;;;;;;23.25;5.90;;;;;;;;;;5002543;28;20052;-59
2023/03/28 02:54:36;;;;;;;10.13;4.75;;;;;;;;;;4996964;28;20078;-59
2023/03/28 02:57:11;;;;;;;14.63;5.40;;;;;;;;;;4997002;28;20529;-58
2023/03/28 02:59:44;;;;;;;13.20;5.07;;;;;;;;;;4998180;28;20068;-57
2023/03/28 03:02:15;;;;;;;16.45;5.50;;;;;;;;;;4997655;28;20034;-58
2023/03/28 03:04:41;;;;;;;13.38;5.95;;;;;;;;;;4995425;28;20455;-58
2023/03/28 03:07:08;;;;;;;22.90;10.30;;;;;;;;;;5003616;28;20174;-56
2023/03/28 03:09:35;;;;;;;26.35;12.38;;;;;;;;;;5006608;28;20049;-59
2023/03/28 03:12:01;;;;;;;40.17;13.77;;;;;;;;;;4996378;28;20037;-60
2023/03/28 03:14:28;;;;;;;30.02;11.90;;;;;;;;;;4995909;28;20410;-59
2023/03/28 03:16:55;;;;;;;44.28;18.98;;;;;;;;;;4997472;28;20048;-57
2023/03/28 03:19:21;;;;;;;32.05;15.13;;;;;;;;;;4998529;28;20046;-62
2023/03/28 03:21:48;;;;;;;39.97;17.38;;;;;;;;;;4998144;28;21842;-60
2023/03/28 03:24:15;;;;;;;47.85;21.25;;;;;;;;;;4997197;28;20073;-60
2023/03/28 03:26:42;;;;;;;49.38;20.05;;;;;;;;;;4995222;28;20088;-60
2023/03/28 03:29:08;;;;;;;44.80;16.83;;;;;;;;;;4995961;28;20041;-60
2023/03/28 03:31:35;;;;;;;58.92;22.30;;;;;;;;;;4995931;28;20048;-60
2023/03/28 03:34:02;;;;;;;46.95;18.52;;;;;;;;;;4996257;28;20352;-58
2023/03/28 03:36:32;;;;;;;43.90;19.15;;;;;;;;;;4995235;28;20038;-61
2023/03/28 03:38:58;;;;;;;38.60;17.52;;;;;;;;;;5004874;28;20061;-60
2023/03/28 03:41:25;;;;;;;31.13;12.07;;;;;;;;;;4996913;28;20099;-59
2023/03/28 03:43:52;;;;;;;29.92;8.82;;;;;;;;;;4994343;28;20106;-59
2023/03/28 03:46:19;;;;;;;26.23;7.60;;;;;;;;;;4993867;28;20124;-61
2023/03/28 03:48:45;;;;;;;19.77;7.10;;;;;;;;;;4996503;28;20038;-59
2023/03/28 03:51:12;;;;;;;26.58;8.13;;;;;;;;;;4996098;28;20120;-59
2023/03/28 03:53:39;;;;;;;17.35;7.15;;;;;;;;;;4996255;28;20050;-58
2023/03/28 03:56:06;;;;;;;13.80;6.43;;;;;;;;;;4995034;28;20144;-60
2023/03/28 03:58:33;;;;;;;13.70;5.63;;;;;;;;;;4995090;28;20045;-61
2023/03/28 04:00:59;;;;;;;13.50;5.88;;;;;;;;;;4997152;28;20572;-60
2023/03/28 04:03:26;;;;;;;18.20;6.63;;;;;;;;;;4995841;28;20045;-61
2023/03/28 04:05:53;;;;;;;12.82;5.55;;;;;;;;;;4995974;28;20069;-59
2023/03/28 04:08:20;;;;;;;13.48;6.38;;;;;;;;;;4994972;28;20044;-59
2023/03/28 04:10:47;;;;;;;10.27;5.05;;;;;;;;;;4995605;28;20156;-60
2023/03/28 04:13:14;;;;;;;16.27;7.72;;;;;;;;;;4997212;28;20085;-60
2023/03/28 04:15:40;;;;;;;18.33;7.22;;;;;;;;;;4994152;28;20053;-59
2023/03/28 04:18:07;;;;;;;16.05;6.75;;;;;;;;;;4995846;28;20050;-61
2023/03/28 04:20:34;;;;;;;13.13;6.30;;;;;;;;;;4994896;28;20073;-59
2023/03/28 04:23:04;;;;;;;16.17;6.00;;;;;;;;;;4996161;28;20525;-61
2023/03/28 04:25:31;;;;;;;11.40;5.18;;;;;;;;;;4994693;28;20080;-61
2023/03/28 04:28:00;;;;;;;13.13;6.30;;;;;;;;;;4995161;28;21817;-60
2023/03/28 04:30:27;;;;;;;16.10;7.30;;;;;;;;;;4995219;28;20042;-59
2023/03/28 04:32:54;;;;;;;30.65;8.88;;;;;;;;;;4996190;28;20038;-60
2023/03/28 04:35:22;;;;;;;26.15;7.60;;;;;;;;;;4994355;28;20084;-61
2023/03/28 04:37:48;;;;;;;19.48;7.20;;;;;;;;;;4995550;28;20038;-59
2023/03/28 04:40:16;;;;;;;12.48;6.70;;;;;;;;;;4995040;28;20046;-59
2023/03/28 04:42:43;;;;;;;17.83;6.72;;;;;;;;;;4994679;28;20046;-60
2023/03/28 04:45:10;;;;;;;16.75;7.30;;;;;;;;;;4995376;28;20049;-61
2023/03/28 04:47:38;;;;;;;12.60;7.03;;;;;;;;;;4994746;28;20030;-61
2023/03/28 04:50:06;;;;;;;13.88;6.35;;;;;;;;;;4995632;28;20088;-61
2023/03/28 04:52:32;;;;;;;16.17;6.32;;;;;;;;;;4994262;28;20042;-60
2023/03/28 04:54:59;;;;;;;19.13;7.03;;;;;;;;;;4994654;28;20171;-59
2023/03/28 04:57:26;;;;;;;12.50;6.95;;;;;;;;;;4994853;28;20046;-62
2023/03/28 04:59:52;;;;;;;16.48;6.93;;;;;;;;;;4995993;28;20046;-60
2023/03/28 05:02:19;;;;;;;14.75;6.03;;;;;;;;;;5001596;28;20693;-61
2023/03/28 05:04:46;;;;;;;16.98;6.93;;;;;;;;;;4995053;28;20171;-62
2023/03/28 05:07:12;;;;;;;23.27;6.85;;;;;;;;;;4995439;28;20156;-59
2023/03/28 05:09:39;;;;;;;12.80;6.20;;;;;;;;;;4994341;28;20045;-60
2023/03/28 05:12:06;;;;;;;20.00;7.47;;;;;;;;;;4995402;28;20168;-61
2023/03/28 05:14:33;;;;;;;25.52;6.97;;;;;;;;;;4994815;28;20065;-59
2023/03/28 05:16:59;;;;;;;17.10;6.53;;;;;;;;;;4994918;28;20096;-61
2023/03/28 05:19:26;;;;;;;17.15;6.55;;;;;;;;;;4994663;28;20042;-62
2023/03/28 05:21:52;;;;;;;22.55;6.43;;;;;;;;;;4994480;28;20466;-57
2023/03/28 05:24:19;;;;;;;19.63;6.88;;;;;;;;;;4994056;28;20060;-61
2023/03/28 05:26:46;;;;;;;14.73;6.78;;;;;;;;;;4994058;28;20995;-61
2023/03/28 05:29:12;;;;;;;15.73;5.90;;;;;;;;;;4995202;28;20534;-60
2023/03/28 05:31:39;;;;;;;12.90;6.38;;;;;;;;;;4994335;28;20080;-59
2023/03/28 05:34:06;;;;;;;23.83;6.55;;;;;;;;;;4994447;28;20037;-61
2023/03/28 05:36:32;;;;;;;25.45;6.32;;;;;;;;;;4993020;28;20046;-59
2023/03/28 05:38:59;;;;;;;16.23;6.10;;;;;;;;;;4994802;28;20081;-60
2023/03/28 05:41:26;;;;;;;19.27;6.80;;;;;;;;;;4994149;28;20046;-57
2023/03/28 05:43:53;;;;;;;15.50;5.85;;;;;;;;;;4994564;28;20049;-58
2023/03/28 05:46:20;;;;;;;14.68;5.80;;;;;;;;;;4993225;28;20053;-58
2023/03/28 05:48:46;;;;;;;13.82;6.07;;;;;;;;;;4994600;28;20109;-61
2023/03/28 05:51:13;;;;;;;16.30;5.90;;;;;;;;;;4994537;28;20042;-58
2023/03/28 05:53:40;;;;;;;13.52;5.68;;;;;;;;;;4998900;28;20101;-59
2023/03/28 05:56:06;;;;;;;16.88;6.13;;;;;;;;;;4998396;28;20048;-58
2023/03/28 05:58:33;;;;;;;23.70;6.10;;;;;;;;;;4998975;28;20574;-59
2023/03/28 06:01:03;;;;;;;12.40;5.95;;;;;;;;;;4998492;28;20129;-59
2023/03/28 06:03:30;;;;;;;14.70;6.15;;;;;;;;;;4999636;28;20117;-59
2023/03/28 06:05:57;;;;;;;14.45;6.40;;;;;;;;;;5004216;28;20073;-58
2023/03/28 06:08:24;;;;;;;18.15;6.78;;;;;;;;;;4997555;28;20665;-59
2023/03/28 06:10:50;;;;;;;18.33;6.03;;;;;;;;;;4998535;28;20056;-63
2023/03/28 06:13:17;;;;;;;19.50;6.25;;;;;;;;;;4999086;28;20813;-59
2023/03/28 06:15:43;;;;;;;15.77;6.03;;;;;;;;;;5004975;28;20057;-59
2023/03/28 06:18:10;;;;;;;21.92;6.35;;;;;;;;;;4993214;28;20042;-59
2023/03/28 06:20:37;;;;;;;15.82;6.80;;;;;;;;;;5006136;28;20043;-61
2023/03/28 06:23:03;;;;;;;13.88;6.32;;;;;;;;;;4998641;28;20046;-59
2023/03/28 06:25:30;;;;;;;19.70;6.10;;;;;;;;;;4996430;28;20128;-59
2023/03/28 06:27:57;;;;;;;9.63;5.63;;;;;;;;;;4998241;28;20431;-60
2023/03/28 06:30:23;;;;;;;17.20;6.60;;;;;;;;;;4997630;28;20046;-59
2023/03/28 06:32:50;;;;;;;14.57;5.82;;;;;;;;;;4998161;28;20042;-60
2023/03/28 06:35:17;;;;;;;15.20;6.68;;;;;;;;;;4997545;28;20057;-60
2023/03/28 06:37:43;;;;;;;15.60;5.88;;;;;;;;;;4998012;28;20901;-58
2023/03/28 06:40:10;;;;;;;12.75;5.38;;;;;;;;;;4998032;28;20062;-59
2023/03/28 06:42:37;;;;;;;14.02;6.18;;;;;;;;;;4997461;28;21572;-61
2023/03/28 06:45:04;;;;;;;15.55;5.90;;;;;;;;;;4997391;28;20061;-58
2023/03/28 06:47:31;;;;;;;13.77;6.10;;;;;;;;;;4996833;28;20034;-61
2023/03/28 06:49:58;;;;;;;13.63;5.80;;;;;;;;;;4997904;28;20543;-59
2023/03/28 06:52:24;;;;;;;12.75;5.72;;;;;;;;;;4997402;28;20091;-58
2023/03/28 06:54:51;;;;;;;14.57;5.97;;;;;;;;;;4998102;28;20410;-60
2023/03/28 06:57:18;;;;;;;12.50;6.07;;;;;;;;;;4998014;28;20041;-60
2023/03/28 06:59:44;;;;;;;13.70;6.15;;;;;;;;;;4997303;28;20046;-60
2023/03/28 07:02:11;;;;;;;16.38;6.47;;;;;;;;;;4997013;28;20065;-61
2023/03/28 07:04:38;;;;;;;13.07;6.05;;;;;;;;;;4996474;28;20041;-59
2023/03/28 07:07:06;;;;;;;11.13;6.20;;;;;;;;;;4997645;28;20046;-61
2023/03/28 07:09:33;;;;;;;13.88;5.20;;;;;;;;;;4997591;28;20062;-60
2023/03/28 07:11:59;;;;;;;12.27;5.63;;;;;;;;;;4997579;28;22273;-61
2023/03/28 07:14:26;;;;;;;19.10;5.97;;;;;;;;;;4996820;28;20037;-63
2023/03/28 07:16:53;;;;;;;12.95;5.38;;;;;;;;;;5002201;28;20037;-62
2023/03/28 07:19:21;;;;;;;14.85;6.20;;;;;;;;;;5000830;28;20073;-59
2023/03/28 07:21:48;;;;;;;10.95;5.30;;;;;;;;;;4997233;28;20128;-59
2023/03/28 07:24:14;;;;;;;10.40;5.32;;;;;;;;;;4998647;28;20172;-59
2023/03/28 07:26:41;;;;;;;21.02;7.03;;;;;;;;;;4995944;28;20050;-60
2023/03/28 07:29:08;;;;;;;17.92;7.03;;;;;;;;;;4995897;28;20045;-58
2023/03/28 07:31:35;;;;;;;11.85;5.47;;;;;;;;;;4997315;28;20561;-60
2023/03/28 07:34:01;;;;;;;14.35;6.50;;;;;;;;;;4996839;28;20037;-61
2023/03/28 07:36:29;;;;;;;18.95;7.03;;;;;;;;;;4995893;28;20426;-57
2023/03/28 07:38:55;;;;;;;14.32;6.65;;;;;;;;;;4997628;28;20965;-59
2023/03/28 07:41:22;;;;;;;16.95;7.15;;;;;;;;;;4996527;28;20034;-56
2023/03/28 07:43:49;;;;;;;14.95;7.32;;;;;;;;;;4997082;28;20132;-61
2023/03/28 07:46:16;;;;;;;11.80;6.13;;;;;;;;;;4996319;28;21085;-59
2023/03/28 07:48:45;;;;;;;14.50;6.80;;;;;;;;;;4996305;28;20042;-59
2023/03/28 07:51:12;;;;;;;14.98;7.05;;;;;;;;;;4997159;28;20133;-59
2023/03/28 07:53:39;;;;;;;15.68;7.20;;;;;;;;;;4997024;28;20414;-61
2023/03/28 07:56:10;;;;;;;14.80;7.50;;;;;;;;;;4995899;28;20582;-61
2023/03/28 07:58:38;;;;;;;16.85;7.30;;;;;;;;;;4995645;28;20045;-59
2023/03/28 08:01:08;;;;;;;18.77;8.73;;;;;;;;;;4996748;28;20193;-61
2023/03/28 08:03:35;;;;;;;18.73;8.82;;;;;;;;;;4996205;28;20605;-60
2023/03/28 08:06:04;;;;;;;18.48;8.43;;;;;;;;;;4995873;28;20426;-61
2023/03/28 08:08:31;;;;;;;16.58;7.68;;;;;;;;;;4995204;28;20048;-59
2023/03/28 08:10:58;;;;;;;15.20;6.97;;;;;;;;;;4995879;28;20045;-62
2023/03/28 08:13:25;;;;;;;17.95;8.68;;;;;;;;;;4995453;28;20050;-59
2023/03/28 08:15:52;;;;;;;18.63;8.15;;;;;;;;;;4995153;28;20068;-59
2023/03/28 08:18:20;;;;;;;15.55;8.25;;;;;;;;;;4996455;28;20069;-64
2023/03/28 08:20:49;;;;;;;17.77;7.93;;;;;;;;;;5003955;28;20038;-61
2023/03/28 08:23:16;;;;;;;13.80;7.50;;;;;;;;;;4996938;28;20050;-59
2023/03/28 08:25:44;;;;;;;16.45;7.03;;;;;;;;;;4994376;28;20065;-61
2023/03/28 08:28:10;;;;;;;18.80;8.20;;;;;;;;;;4995338;28;20602;-61
2023/03/28 08:30:37;;;;;;;16.95;8.65;;;;;;;;;;4994831;28;20038;-59
2023/03/28 08:33:04;;;;;;;12.60;7.70;;;;;;;;;;4995611;28;21415;-59
2023/03/28 08:35:31;;;;;;;16.88;8.65;;;;;;;;;;4995111;28;20046;-59
2023/03/28 08:37:57;;;;;;;16.55;8.38;;;;;;;;;;4995625;28;20033;-60
2023/03/28 08:40:25;;;;;;;17.67;9.13;;;;;;;;;;4994744;28;20080;-60
2023/03/28 08:43:13;;;;;;;22.83;8.60;;;;;;;;;;4995227;28;20065;-66
2023/03/28 08:45:43;;;;;;;21.33;8.65;;;;;;;;;;4995541;28;20054;-64
2023/03/28 08:48:27;;;;;;;16.13;7.97;;;;;;;;;;4995436;28;20124;-60
2023/03/28 08:50:53;;;;;;;11.98;7.38;;;;;;;;;;5001804;28;20132;-59
2023/03/28 08:53:42;;;;;;;16.58;7.82;;;;;;;;;;4994824;28;20043;-59
2023/03/28 08:56:09;;;;;;;22.00;9.05;;;;;;;;;;4994637;28;20100;-61
2023/03/28 08:58:51;;;;;;;23.15;9.52;;;;;;;;;;4994863;28;20077;-59
2023/03/28 09:01:21;;;;;;;20.42;8.82;;;;;;;;;;4996049;28;20067;-59
2023/03/28 09:03:48;;;;;;;14.35;7.80;;;;;;;;;;5014853;28;20167;-59
2023/03/28 09:06:19;;;;;;;11.70;7.03;;;;;;;;;;4999021;28;20114;-61
2023/03/28 09:08:52;;;;;;;17.10;7.93;;;;;;;;;;5002383;28;20046;-60
2023/03/28 09:11:37;;;;;;;14.73;7.22;;;;;;;;;;4994138;28;20335;-59
2023/03/28 09:14:04;;;;;;;14.45;6.72;;;;;;;;;;4994018;28;20038;-59
2023/03/28 09:16:37;;;;;;;14.68;7.95;;;;;;;;;;4994100;28;20054;-59
2023/03/28 09:19:04;;;;;;;16.15;8.25;;;;;;;;;;4994550;28;20509;-59
2023/03/28 09:21:55;;;;;;;17.98;7.70;;;;;;;;;;4994243;28;20059;-59
2023/03/28 09:24:27;;;;;;;23.58;8.43;;;;;;;;;;4993609;28;20050;-62
2023/03/28 09:27:17;;;;;;;22.27;8.43;;;;;;;;;;4994596;28;20479;-60
2023/03/28 09:29:45;;;;;;;9.38;5.88;;;;;;;;;;4996864;28;20112;-61
2023/03/28 09:32:24;;;;;;;22.30;8.40;;;;;;;;;;4995083;28;20030;-59
2023/03/28 09:34:51;;;;;;;17.02;7.38;;;;;;;;;;5001338;28;20156;-59
2023/03/28 09:39:55;;;;;;;18.73;7.80;;;;;;;;;;4830035;23;20105;-62
2023/03/28 09:42:37;;;;;;;15.35;7.68;;;;;;;;;;4983972;28;20126;-63
2023/03/28 09:45:10;;;;;;;12.68;7.65;;;;;;;;;;4982417;28;20064;-60
2023/03/28 09:47:36;;;;;;;;;;;;;;;;;;4985128;28;20042;-63
2023/03/28 09:50:04;;;;;;;12.88;6.35;;;;;;;;;;4985592;28;20461;-62
2023/03/28 09:52:30;;;;;;;13.45;7.18;;;;;;;;;;4985829;28;20038;-62
2023/03/28 09:54:59;;;;;;;16.63;8.95;;;;;;;;;;4984094;28;20062;-62
2023/03/28 09:57:25;;;;;;;13.95;7.30;;;;;;;;;;4984949;28;20044;-62
2023/03/28 09:59:52;;;;;;;16.15;8.20;;;;;;;;;;4985460;28;20099;-61
2023/03/28 10:02:31;;;;;;;12.98;8.23;;;;;;;;;;4984479;28;20544;-60
2023/03/28 10:04:57;;;;;;;14.45;7.80;;;;;;;;;;4984395;28;20042;-60
2023/03/28 10:07:29;;;;;;;15.80;8.10;;;;;;;;;;4983866;28;20581;-61
2023/03/28 10:10:01;;;;;;;12.82;7.65;;;;;;;;;;4967372;28;20072;-61
2023/03/28 10:12:35;;;;;;;12.30;7.18;;;;;;;;;;4983310;28;20121;-61
2023/03/28 10:15:02;;;;;;;14.57;8.07;;;;;;;;;;4984657;28;20043;-61
2023/03/28 10:17:32;;;;;;;10.90;6.40;;;;;;;;;;4982197;28;20112;-59
2023/03/28 10:20:00;;;;;;;12.35;7.25;;;;;;;;;;4984419;28;20052;-62
2023/03/28 10:22:35;;;;;;;14.38;7.00;;;;;;;;;;4984541;28;20038;-63
2023/03/28 10:25:04;;;;;;;12.68;7.65;;;;;;;;;;4984670;28;20047;-63
2023/03/28 10:27:33;;;;;;;11.32;7.43;;;;;;;;;;4982109;28;20077;-63
2023/03/28 10:30:21;;;;;;;14.75;7.60;;;;;;;;;;4984124;28;20045;-61
2023/03/28 10:33:26;;;;;;;13.65;6.47;;;;;;;;;;4984057;28;20080;-62
2023/03/28 10:36:03;;;;;;;18.40;7.30;;;;;;;;;;4909010;28;20652;-60
2023/03/28 10:38:32;;;;;;;12.38;6.60;;;;;;;;;;4910617;29;20420;-60
2023/03/28 10:40:58;;;;;;;12.63;6.78;;;;;;;;;;4955287;28;20078;-61
2023/03/28 10:43:31;;;;;;;12.35;6.47;;;;;;;;;;4988299;28;20104;-59
2023/03/28 10:45:59;;;;;;;11.07;6.07;;;;;;;;;;4988105;28;20725;-60
2023/03/28 10:48:28;;;;;;;15.45;7.70;;;;;;;;;;4986467;28;21018;-61
2023/03/28 10:50:56;;;;;;;13.10;6.57;;;;;;;;;;4988299;28;20041;-61
2023/03/28 10:53:28;;;;;;;13.18;6.88;;;;;;;;;;4987771;28;20030;-61
2023/03/28 10:56:02;;;;;;;9.80;6.25;;;;;;;;;;4987461;28;20149;-61
2023/03/28 10:58:45;;;;;;;11.88;6.93;;;;;;;;;;4987848;28;20030;-59
2023/03/28 11:01:19;;;;;;;7.87;5.33;;;;;;;;;;4987503;28;20164;-60
2023/03/28 11:04:04;;;;;;;17.15;6.32;;;;;;;;;;4988853;28;20351;-60
2023/03/28 11:06:33;;;;;;;10.57;5.68;;;;;;;;;;4988756;28;20042;-60
2023/03/28 11:09:03;;;;;;;12.48;7.80;;;;;;;;;;4988218;28;20137;-58
2023/03/28 11:11:44;;;;;;;15.13;7.28;;;;;;;;;;4986710;28;20741;-60
2023/03/28 11:14:20;;;;;;;11.50;6.60;;;;;;;;;;4987233;28;20041;-62
2023/03/28 11:17:09;;;;;;;30.95;7.70;;;;;;;;;;4986739;28;20038;-62
2023/03/28 11:19:52;;;;;;;11.80;6.43;;;;;;;;;;4976801;28;20143;-63
2023/03/28 11:22:31;;;;;;;10.45;6.72;;;;;;;;;;4986252;28;20053;-63
2023/03/28 11:25:07;;;;;;;14.30;6.55;;;;;;;;;;4986294;28;20045;-62
2023/03/28 11:27:36;;;;;;;18.70;6.50;;;;;;;;;;4985708;28;20069;-61
2023/03/28 11:30:07;;;;;;;11.88;6.78;;;;;;;;;;4986526;28;20046;-61
2023/03/28 11:32:44;;;;;;;13.30;6.20;;;;;;;;;;4986870;28;20046;-61
2023/03/28 11:35:46;;;;;;;7.45;5.15;;;;;;;;;;4986170;28;20050;-61
2023/03/28 11:38:13;;;;;;;15.23;6.03;;;;;;;;;;4912698;29;20072;-61
2023/03/28 11:40:45;;;;;;;10.55;5.55;;;;;;;;;;4971836;28;20142;-61
2023/03/28 11:43:13;;;;;;;11.10;4.03;;;;;;;;;;4987212;28;20617;-61
2023/03/28 11:45:41;;;;;;;13.95;5.63;;;;;;;;;;4985842;28;20046;-61
2023/03/28 11:48:10;;;;;;;32.25;6.32;;;;;;;;;;4987095;28;20096;-62
2023/03/28 11:50:50;;;;;;;10.75;5.50;;;;;;;;;;4985384;28;20093;-62
2023/03/28 11:53:22;;;;;;;6.75;4.40;;;;;;;;;;4986788;28;20072;-60
2023/03/28 11:55:52;;;;;;;9.33;5.43;;;;;;;;;;4985570;28;20061;-60
2023/03/28 11:58:27;;;;;;;11.35;5.18;;;;;;;;;;4987666;28;20463;-61
2023/03/28 12:00:53;;;;;;;12.40;5.07;;;;;;;;;;4987651;28;20042;-62
2023/03/28 12:03:37;;;;;;;11.02;4.18;;;;;;;;;;4987119;28;20197;-60
2023/03/28 12:06:06;;;;;;;8.55;4.28;;;;;;;;;;4987560;28;20104;-61
2023/03/28 12:08:41;;;;;;;9.15;4.38;;;;;;;;;;4986277;28;20042;-62
2023/03/28 12:11:12;;;;;;;19.00;4.85;;;;;;;;;;4969262;28;20129;-63
2023/03/28 12:13:45;;;;;;;11.68;4.88;;;;;;;;;;4985521;28;20049;-63
2023/03/28 12:16:22;;;;;;;19.65;5.18;;;;;;;;;;4986196;28;20164;-62
2023/03/28 12:18:56;;;;;;;6.53;3.25;;;;;;;;;;4984764;28;20046;-63
2023/03/28 12:21:48;;;;;;;16.63;4.85;;;;;;;;;;4985263;28;20589;-62
2023/03/28 12:24:17;;;;;;;10.40;4.47;;;;;;;;;;4986290;28;20042;-63
2023/03/28 12:27:02;;;;;;;9.90;4.60;;;;;;;;;;4985405;28;20042;-63
2023/03/28 12:29:58;;;;;;;11.48;4.13;;;;;;;;;;4986346;28;20065;-63
2023/03/28 12:32:43;;;;;;;5.53;2.88;;;;;;;;;;4966876;28;20042;-60
2023/03/28 12:35:28;;;;;;;7.50;3.90;;;;;;;;;;4988080;28;20058;-60
2023/03/28 12:37:58;;;;;;;6.72;2.97;;;;;;;;;;4986629;28;20085;-64
2023/03/28 12:40:44;;;;;;;10.75;3.85;;;;;;;;;;4985686;28;20045;-62
2023/03/28 12:43:13;;;;;;;6.43;2.83;;;;;;;;;;4984984;28;20125;-60
2023/03/28 12:45:42;;;;;;;12.23;3.95;;;;;;;;;;4984355;28;20529;-64
2023/03/28 12:48:14;;;;;;;10.45;4.13;;;;;;;;;;4985105;28;20052;-64
2023/03/28 12:50:41;;;;;;;12.18;3.28;;;;;;;;;;4984618;28;20138;-63
2023/03/28 12:53:10;;;;;;;7.38;3.40;;;;;;;;;;4985535;28;20061;-63
2023/03/28 12:55:39;;;;;;;8.88;3.17;;;;;;;;;;4985096;28;20108;-62
2023/03/28 12:58:23;;;;;;;6.68;3.33;;;;;;;;;;4983734;28;20042;-61
2023/03/28 13:00:50;;;;;;;;;;;;;;;;;;4985514;28;20128;-59
2023/03/28 13:03:34;;;;;;;6.68;2.97;;;;;;;;;;4986010;28;19925;-61
2023/03/28 13:06:07;;;;;;;11.07;3.45;;;;;;;;;;4985490;28;20446;-62
2023/03/28 13:08:46;;;;;;;15.70;3.05;;;;;;;;;;4985782;28;20037;-62
2023/03/28 13:11:32;;;;;;;6.10;2.67;;;;;;;;;;4986475;28;20042;-61
2023/03/28 13:14:18;;;;;;;12.63;2.80;;;;;;;;;;4985348;28;20042;-61
2023/03/28 13:16:48;;;;;;;11.18;3.50;;;;;;;;;;4969259;28;20062;-63
2023/03/28 13:19:15;;;;;;;10.00;3.67;;;;;;;;;;4986387;28;20042;-62
2023/03/28 13:21:46;;;;;;;7.57;3.00;;;;;;;;;;4984661;28;20468;-63
2023/03/28 13:24:25;;;;;;;5.85;2.88;;;;;;;;;;4985405;28;22149;-63
2023/03/28 13:27:11;;;;;;;5.80;3.05;;;;;;;;;;4985035;28;20044;-61
2023/03/28 13:29:45;;;;;;;6.53;3.38;;;;;;;;;;4984015;28;20104;-63
2023/03/28 13:32:14;;;;;;;6.75;2.47;;;;;;;;;;4984824;28;20134;-63
2023/03/28 13:34:46;;;;;;;16.05;3.00;;;;;;;;;;4983848;28;20198;-62
2023/03/28 13:37:20;;;;;;;8.13;3.40;;;;;;;;;;4986129;28;20050;-64
2023/03/28 13:39:51;;;;;;;12.07;3.10;;;;;;;;;;4984922;28;20119;-62
2023/03/28 13:42:31;;;;;;;9.40;3.42;;;;;;;;;;4985767;28;20066;-62
2023/03/28 13:45:05;;;;;;;4.97;2.72;;;;;;;;;;4984748;28;20044;-62
2023/03/28 13:47:38;;;;;;;8.20;3.35;;;;;;;;;;4984476;28;20130;-62
2023/03/28 13:50:10;;;;;;;11.90;3.10;;;;;;;;;;4985129;28;20030;-63
2023/03/28 13:52:38;;;;;;;8.45;3.10;;;;;;;;;;4984706;28;20513;-62
2023/03/28 13:55:15;;;;;;;7.35;3.63;;;;;;;;;;4984473;28;20045;-64
2023/03/28 13:57:42;;;;;;;7.90;3.50;;;;;;;;;;4982840;28;20422;-62
2023/03/28 14:00:15;;;;;;;10.82;4.15;;;;;;;;;;4984999;28;20060;-63
2023/03/28 14:02:43;;;;;;;8.82;4.30;;;;;;;;;;4983887;28;20073;-62
2023/03/28 14:05:21;;;;;;;11.60;4.63;;;;;;;;;;4967856;28;20153;-63
2023/03/28 14:07:49;;;;;;;7.75;3.67;;;;;;;;;;4984234;28;22278;-62
2023/03/28 14:10:35;;;;;;;6.75;3.45;;;;;;;;;;4984935;28;20042;-62
2023/03/28 14:13:14;;;;;;;12.13;4.18;;;;;;;;;;4985901;28;20405;-61
2023/03/28 14:15:42;;;;;;;14.55;4.53;;;;;;;;;;4986252;28;20084;-62
2023/03/28 14:18:16;;;;;;;22.95;4.10;;;;;;;;;;4987480;28;20565;-62
2023/03/28 14:20:44;;;;;;;24.60;5.15;;;;;;;;;;4986771;28;20101;-63
2023/03/28 14:23:31;;;;;;;9.57;4.43;;;;;;;;;;4988120;28;20038;-61
2023/03/28 14:26:01;;;;;;;17.23;3.58;;;;;;;;;;4987916;28;20049;-64
2023/03/28 14:28:29;;;;;;;6.85;3.75;;;;;;;;;;4986048;28;20041;-63
2023/03/28 14:30:56;;;;;;;17.05;4.07;;;;;;;;;;4988437;28;20049;-65
2023/03/28 14:33:23;;;;;;;8.70;3.53;;;;;;;;;;4987059;28;20439;-62
2023/03/28 14:35:57;;;;;;;9.98;3.88;;;;;;;;;;4987069;28;20411;-63
2023/03/28 14:38:32;;;;;;;9.98;3.00;;;;;;;;;;4985925;28;20088;-63
2023/03/28 14:41:12;;;;;;;14.05;3.10;;;;;;;;;;4987479;28;20144;-63
2023/03/28 14:43:38;;;;;;;10.85;2.72;;;;;;;;;;4987097;28;20040;-62
2023/03/28 14:46:09;;;;;;;14.10;3.50;;;;;;;;;;4988086;28;21018;-63
2023/03/28 14:48:37;;;;;;;9.93;3.20;;;;;;;;;;4985676;28;20387;-63
2023/03/28 14:51:04;;;;;;;6.30;2.90;;;;;;;;;;4988315;28;20141;-63
2023/03/28 14:53:36;;;;;;;4.40;1.75;;;;;;;;;;4986804;28;20072;-63
2023/03/28 14:56:11;;;;;;;12.95;3.25;;;;;;;;;;4988150;28;20057;-63